Time;durP1;ratioP1;P1;durP2;ratioP2;P2;SDS_P1;SDS_P2;PMS_P1;PMS_P2;Temp;Humidity;BMP_temperature;BMP_pressure;BME280_temperature;BME280_humidity;BME280_pressure;Samples;Min_cycle;Max_cycle;Signal;HPM_P1;HPM_P2
2022/09/02 00:02:28;;;;;;;3.22;1.25;;;;;;;16.28;91.69;102097.75;5018875;28;20172;-77
2022/09/02 00:04:56;;;;;;;0.80;0.80;;;;;;;16.26;91.75;102095.97;4991328;28;20049;-78
2022/09/02 00:07:24;;;;;;;4.55;1.13;;;;;;;16.24;92.05;102095.06;4961694;28;20264;-76
2022/09/02 00:09:53;;;;;;;1.83;0.95;;;;;;;16.20;92.19;102091.53;5008679;28;20049;-76
2022/09/02 00:12:22;;;;;;;1.05;0.80;;;;;;;16.19;92.47;102089.75;5021711;28;20069;-77
2022/09/02 00:14:50;;;;;;;5.93;1.10;;;;;;;16.16;93.04;102087.09;5025714;28;20061;-76
2022/09/02 00:17:18;;;;;;;0.80;0.80;;;;;;;16.12;92.73;102082.66;4997981;28;20247;-77
2022/09/02 00:19:47;;;;;;;2.65;0.80;;;;;;;16.09;92.57;102082.69;5009310;28;20053;-76
2022/09/02 00:22:21;;;;;;;0.93;0.73;;;;;;;16.07;93.27;102081.81;4955886;28;20690;-76
2022/09/02 00:24:49;;;;;;;1.55;0.80;;;;;;;16.03;92.93;102072.94;5025054;28;20052;-76
2022/09/02 00:27:18;;;;;;;2.05;0.73;;;;;;;16.03;92.66;102077.34;5003740;28;20274;-77
2022/09/02 00:29:47;;;;;;;1.20;1.00;;;;;;;16.02;93.05;102081.78;4980922;28;20044;-76
2022/09/02 00:32:15;;;;;;;2.88;1.10;;;;;;;16.00;93.75;102078.25;5001205;28;20342;-77
2022/09/02 00:34:44;;;;;;;0.95;0.90;;;;;;;15.97;93.06;102079.13;5021877;28;20048;-76
2022/09/02 00:37:12;;;;;;;2.95;0.98;;;;;;;15.95;93.10;102080.00;4975721;28;20061;-77
2022/09/02 00:39:41;;;;;;;2.35;1.13;;;;;;;15.92;93.46;102075.56;4984003;28;20051;-76
2022/09/02 00:42:16;;;;;;;3.75;1.45;;;;;;;15.91;93.00;102062.28;5026219;28;20080;-76
2022/09/02 00:44:47;;;;;;;;;;;;;;;15.90;93.30;102071.16;4983300;28;20038;-76
2022/09/02 00:47:16;;;;;;;3.03;1.63;;;;;;;15.86;92.95;102070.28;5000818;28;20127;-76
2022/09/02 00:49:51;;;;;;;1.15;1.05;;;;;;;15.85;92.82;102073.78;5023672;28;20057;-77
2022/09/02 00:52:28;;;;;;;0.90;0.90;;;;;;;15.83;92.88;102059.63;4969296;28;20352;-76
2022/09/02 00:55:04;;;;;;;1.20;0.80;;;;;;;15.84;92.51;102064.06;5022864;28;20046;-76
2022/09/02 00:57:38;;;;;;;1.80;1.10;;;;;;;15.82;92.36;102067.59;4989308;28;20057;-76
2022/09/02 01:00:21;;;;;;;1.00;1.00;;;;;;;15.82;92.44;102056.97;5002565;28;20044;-75
2022/09/02 01:02:55;;;;;;;0.90;0.90;;;;;;;15.80;92.82;102067.59;4997544;28;20068;-76
2022/09/02 01:05:28;;;;;;;2.83;1.10;;;;;;;15.79;93.23;102066.69;5021655;28;20071;-77
2022/09/02 01:07:57;;;;;;;2.20;0.90;;;;;;;15.77;93.10;102060.50;4992095;28;20062;-77
2022/09/02 01:10:33;;;;;;;0.88;0.80;;;;;;;15.75;92.71;102056.09;5004663;28;20042;-76
2022/09/02 01:13:06;;;;;;;4.53;1.88;;;;;;;15.71;92.30;102055.16;5022316;28;20404;-76
2022/09/02 01:15:39;;;;;;;0.63;0.63;;;;;;;15.71;92.96;102059.59;5006708;28;20041;-77
2022/09/02 01:18:12;;;;;;;2.42;1.35;;;;;;;15.67;93.08;102056.03;4994493;28;20450;-76
2022/09/02 01:20:41;;;;;;;1.17;0.93;;;;;;;15.67;93.05;102045.41;4996521;28;20045;-76
2022/09/02 01:23:10;;;;;;;0.90;0.90;;;;;;;15.65;93.20;102051.59;4996519;28;20041;-76
2022/09/02 01:25:39;;;;;;;2.70;1.55;;;;;;;15.62;93.55;102049.81;4975687;28;20045;-76
2022/09/02 01:28:10;;;;;;;0.82;0.80;;;;;;;15.59;93.48;102047.16;5019584;28;20049;-76
2022/09/02 01:30:44;;;;;;;1.67;0.82;;;;;;;15.55;92.96;102042.72;5008025;28;20050;-77
2022/09/02 01:33:16;;;;;;;2.08;0.70;;;;;;;15.54;94.00;102043.63;4993332;28;20046;-76
2022/09/02 01:35:45;;;;;;;3.85;1.15;;;;;;;15.51;94.12;102036.53;4995776;28;20041;-76
2022/09/02 01:38:14;;;;;;;3.40;0.82;;;;;;;15.49;93.73;102043.59;5019102;28;20549;-76
2022/09/02 01:40:43;;;;;;;1.45;0.90;;;;;;;15.46;94.62;102046.25;4955683;28;20050;-77
2022/09/02 01:43:20;;;;;;;1.48;1.05;;;;;;;15.43;94.71;102043.59;4996728;28;20431;-76
2022/09/02 01:45:53;;;;;;;0.85;0.80;;;;;;;15.40;94.54;102039.13;4979271;28;20046;-77
2022/09/02 01:48:24;;;;;;;1.30;1.00;;;;;;;15.38;94.67;102032.94;4993785;28;20037;-76
2022/09/02 01:51:00;;;;;;;2.00;1.03;;;;;;;15.38;94.42;102034.72;5004522;28;20443;-77
2022/09/02 01:53:29;;;;;;;0.80;0.80;;;;;;;15.35;94.67;102035.63;4993560;28;20041;-77
2022/09/02 01:55:59;;;;;;;3.53;1.55;;;;;;;15.32;95.10;102032.94;4953903;28;20056;-76
2022/09/02 01:58:31;;;;;;;1.50;1.05;;;;;;;15.30;95.39;102023.22;4972932;28;20052;-77
2022/09/02 02:00:59;;;;;;;1.73;1.20;;;;;;;15.26;95.01;102019.66;4977977;28;20045;-76
2022/09/02 02:03:29;;;;;;;0.90;0.90;;;;;;;15.24;95.29;102023.19;4943588;28;20053;-77
2022/09/02 02:05:59;;;;;;;1.30;1.13;;;;;;;15.23;94.70;102021.41;4977575;28;20292;-77
2022/09/02 02:08:29;;;;;;;2.15;0.95;;;;;;;15.20;95.24;102017.88;4982626;28;20065;-77
2022/09/02 02:10:59;;;;;;;1.67;0.90;;;;;;;15.19;95.25;102017.84;4952771;28;20060;-77
2022/09/02 02:13:30;;;;;;;3.90;1.10;;;;;;;15.17;95.44;102012.53;4978782;28;20518;-76
2022/09/02 02:15:58;;;;;;;5.20;1.00;;;;;;;15.16;95.54;102015.19;5004232;28;20080;-76
2022/09/02 02:18:28;;;;;;;3.30;1.05;;;;;;;15.14;95.67;102015.22;5002225;28;20042;-76
2022/09/02 02:20:56;;;;;;;2.00;0.90;;;;;;;15.12;96.07;102011.66;4977989;28;20042;-77
2022/09/02 02:23:25;;;;;;;4.32;1.33;;;;;;;15.10;95.72;102010.75;5011175;28;20720;-77
2022/09/02 02:25:53;;;;;;;0.90;0.90;;;;;;;15.08;95.98;102014.28;4965422;28;20432;-77
2022/09/02 02:28:22;;;;;;;1.40;1.30;;;;;;;15.06;96.18;102014.28;5000516;28;20045;-77
2022/09/02 02:30:50;;;;;;;0.90;0.90;;;;;;;15.05;96.45;102008.94;4982687;28;20034;-76
2022/09/02 02:33:22;;;;;;;1.80;1.30;;;;;;;15.02;96.64;102016.03;4961678;28;20045;-77
2022/09/02 02:36:06;;;;;;;1.80;1.00;;;;;;;14.97;96.57;102012.50;4963417;28;20038;-77
2022/09/02 02:38:36;;;;;;;1.08;0.98;;;;;;;14.95;96.21;102008.94;4976709;28;20030;-77
2022/09/02 02:41:07;;;;;;;1.02;1.02;;;;;;;14.93;96.75;102015.13;4940066;28;20050;-76
2022/09/02 02:43:36;;;;;;;1.10;1.10;;;;;;;14.90;96.30;102012.47;4996932;28;20052;-77
2022/09/02 02:46:05;;;;;;;1.30;1.10;;;;;;;14.88;97.08;102008.94;5003399;28;20049;-76
2022/09/02 02:48:35;;;;;;;1.33;0.90;;;;;;;14.87;96.99;102001.84;4988879;28;20219;-76
2022/09/02 02:51:05;;;;;;;3.60;1.17;;;;;;;14.86;96.86;102003.59;4971904;28;20038;-76
2022/09/02 02:53:35;;;;;;;2.30;1.00;;;;;;;14.84;96.45;102005.38;4960607;28;20267;-75
2022/09/02 02:56:04;;;;;;;1.00;1.00;;;;;;;14.82;97.10;101997.41;4963332;28;20050;-76
2022/09/02 02:58:33;;;;;;;1.65;1.20;;;;;;;14.80;97.44;101995.59;5000683;28;20060;-77
2022/09/02 03:01:02;;;;;;;1.27;1.20;;;;;;;14.77;97.63;101998.25;4988754;28;20042;-76
2022/09/02 03:03:31;;;;;;;1.27;1.17;;;;;;;14.77;97.54;102004.44;4985331;28;20037;-76
2022/09/02 03:06:01;;;;;;;1.23;0.93;;;;;;;14.76;96.91;101999.13;4966088;28;20045;-76
2022/09/02 03:08:30;;;;;;;2.58;1.20;;;;;;;14.75;97.16;101998.25;4978682;28;20046;-76
2022/09/02 03:11:00;;;;;;;2.35;1.27;;;;;;;14.74;97.43;101992.94;4988769;28;20050;-76
2022/09/02 03:13:31;;;;;;;1.38;1.17;;;;;;;14.74;97.34;101992.94;4952588;28;20045;-76
2022/09/02 03:16:02;;;;;;;;;;;;;;;14.70;98.37;101997.34;4996695;28;20038;-76
2022/09/02 03:18:33;;;;;;;2.47;1.20;;;;;;;14.69;97.98;101990.28;5000985;28;20398;-76
2022/09/02 03:21:07;;;;;;;1.27;1.17;;;;;;;14.70;98.07;101989.38;4978949;28;20049;-76
2022/09/02 03:23:35;;;;;;;1.20;1.10;;;;;;;14.70;97.90;101989.38;4973176;28;20279;-76
2022/09/02 03:26:09;;;;;;;2.72;1.17;;;;;;;14.70;98.55;101992.03;4964201;28;20491;-77
2022/09/02 03:28:39;;;;;;;1.15;1.02;;;;;;;14.70;98.93;102002.63;4948440;28;20450;-77
2022/09/02 03:31:17;;;;;;;1.10;1.00;;;;;;;14.68;98.85;101983.16;5010114;28;20064;-76
2022/09/02 03:33:46;;;;;;;1.20;1.10;;;;;;;14.64;99.08;101989.34;4980009;28;20319;-76
2022/09/02 03:36:31;;;;;;;3.85;1.10;;;;;;;14.63;99.28;101984.94;4995643;28;20518;-76
2022/09/02 03:39:00;;;;;;;1.73;1.20;;;;;;;14.61;99.03;101986.66;4985555;28;20037;-77
2022/09/02 03:41:29;;;;;;;2.35;1.00;;;;;;;14.60;99.82;101980.50;4995986;28;20682;-76
2022/09/02 03:44:00;;;;;;;1.42;1.30;;;;;;;14.60;99.71;101979.63;4976822;28;20049;-76
2022/09/02 03:46:30;;;;;;;1.50;1.40;;;;;;;14.60;100.00;101976.97;4987860;28;20048;-77
2022/09/02 03:48:58;;;;;;;1.40;1.30;;;;;;;14.58;100.00;101982.25;5006846;28;20046;-76
2022/09/02 03:51:27;;;;;;;4.10;2.60;;;;;;;14.58;100.00;101978.72;4988117;28;20033;-76
2022/09/02 03:53:56;;;;;;;4.53;2.10;;;;;;;14.57;100.00;101974.28;4980050;28;20037;-75
2022/09/02 03:56:26;;;;;;;2.10;1.20;;;;;;;14.55;100.00;101970.69;4994933;28;20060;-77
2022/09/02 03:58:56;;;;;;;1.95;1.65;;;;;;;14.53;100.00;101973.34;5005574;28;20072;-77
2022/09/02 04:01:27;;;;;;;1.40;1.30;;;;;;;14.52;100.00;101970.72;4952608;28;20390;-75
2022/09/02 04:04:05;;;;;;;1.40;1.30;;;;;;;14.50;100.00;101975.09;5007099;28;20049;-77
2022/09/02 04:06:36;;;;;;;1.50;1.40;;;;;;;14.48;100.00;101966.25;5002662;28;20230;-76
2022/09/02 04:09:06;;;;;;;;;;;;;;;14.46;100.00;101970.66;5012906;28;20046;-77
2022/09/02 04:11:41;;;;;;;3.28;2.00;;;;;;;14.43;100.00;101967.13;4981203;28;19928;-76
2022/09/02 04:14:11;;;;;;;3.72;1.50;;;;;;;14.40;100.00;101956.50;5002882;28;20037;-75
2022/09/02 04:16:41;;;;;;;1.63;1.52;;;;;;;14.38;100.00;101960.00;4975841;28;20104;-75
2022/09/02 04:19:09;;;;;;;2.75;1.85;;;;;;;14.38;100.00;101974.16;5005784;28;20048;-77
2022/09/02 04:21:40;;;;;;;;;;;;;;;14.35;100.00;101968.84;5006467;28;20041;-75
2022/09/02 04:24:10;;;;;;;1.95;1.60;;;;;;;14.33;100.00;101967.03;5002565;28;19928;-76
2022/09/02 04:26:41;;;;;;;3.22;1.77;;;;;;;14.32;100.00;101968.81;5011756;28;20041;-76
2022/09/02 04:29:14;;;;;;;1.40;1.30;;;;;;;14.32;100.00;101973.25;4983830;28;20048;-76
2022/09/02 04:31:44;;;;;;;1.85;1.63;;;;;;;14.30;100.00;101959.97;4965567;28;20040;-76
2022/09/02 04:34:13;;;;;;;2.85;2.50;;;;;;;14.29;100.00;101967.91;4991463;28;20037;-77
2022/09/02 04:36:42;;;;;;;2.67;2.13;;;;;;;14.27;100.00;101964.38;5000044;28;20052;-76
2022/09/02 04:39:12;;;;;;;3.55;2.08;;;;;;;14.24;100.00;101957.28;4978567;28;20394;-78
2022/09/02 04:41:41;;;;;;;1.92;1.67;;;;;;;14.23;100.00;101958.16;4966838;28;20432;-76
2022/09/02 04:44:12;;;;;;;1.55;1.45;;;;;;;14.23;100.00;101960.81;4978026;28;20045;-76
2022/09/02 04:46:44;;;;;;;1.75;1.65;;;;;;;14.23;100.00;101952.84;4956324;28;20042;-76
2022/09/02 04:49:18;;;;;;;1.65;1.55;;;;;;;14.23;100.00;101958.16;4984430;28;20034;-77
2022/09/02 04:51:49;;;;;;;1.50;1.33;;;;;;;14.23;100.00;101960.81;4998785;28;20037;-77
2022/09/02 04:54:18;;;;;;;3.22;1.67;;;;;;;14.21;100.00;101955.53;4977758;28;20041;-77
2022/09/02 04:56:49;;;;;;;2.53;1.30;;;;;;;14.23;100.00;101950.19;4986367;28;20045;-76
2022/09/02 04:59:20;;;;;;;1.73;1.10;;;;;;;14.24;100.00;101965.25;4976232;28;20148;-76
2022/09/02 05:02:10;;;;;;;;;;;;;;;14.23;100.00;101958.16;4965704;28;20049;-76
2022/09/02 05:04:40;;;;;;;5.53;1.52;;;;;;;14.22;100.00;101957.28;4993585;28;19932;-76
2022/09/02 05:07:17;;;;;;;3.00;1.23;;;;;;;14.22;100.00;101956.41;4961956;28;20054;-77
2022/09/02 05:09:48;;;;;;;3.30;1.85;;;;;;;14.23;100.00;101955.50;4994631;28;20045;-77
2022/09/02 05:12:18;;;;;;;3.20;1.77;;;;;;;14.23;100.00;101953.78;4973361;28;20056;-77
2022/09/02 05:14:52;;;;;;;1.50;1.33;;;;;;;14.27;100.00;101959.06;4973737;28;20041;-75
2022/09/02 05:17:23;;;;;;;2.13;1.20;;;;;;;14.27;100.00;101957.28;4942443;28;20624;-76
2022/09/02 05:19:52;;;;;;;1.75;1.50;;;;;;;14.29;100.00;101957.31;4987351;28;20054;-75
2022/09/02 05:22:21;;;;;;;2.70;1.67;;;;;;;14.30;100.00;101959.97;4959700;28;20065;-77
2022/09/02 05:24:50;;;;;;;1.95;1.52;;;;;;;14.32;100.00;101952.03;4971817;28;20042;-76
2022/09/02 05:27:19;;;;;;;2.90;1.40;;;;;;;14.32;100.00;101960.88;4977478;28;20160;-76
2022/09/02 05:29:49;;;;;;;1.60;1.35;;;;;;;14.34;100.00;101950.28;4979789;28;20033;-77
2022/09/02 05:32:21;;;;;;;2.33;1.60;;;;;;;14.37;100.00;101955.59;4942187;28;21976;-76
2022/09/02 05:34:53;;;;;;;3.40;1.20;;;;;;;14.38;100.00;101949.41;4962875;28;20053;-76
2022/09/02 05:37:23;;;;;;;2.33;1.50;;;;;;;14.41;100.00;101957.38;4967768;28;20042;-76
2022/09/02 05:39:52;;;;;;;1.42;1.33;;;;;;;14.43;100.00;101950.31;4987208;28;20399;-76
2022/09/02 05:42:23;;;;;;;2.72;1.40;;;;;;;14.47;100.00;101954.75;4964249;28;20042;-77
2022/09/02 05:44:52;;;;;;;4.82;1.95;;;;;;;14.51;100.00;101953.00;4997173;28;20046;-77
2022/09/02 05:47:24;;;;;;;2.28;1.50;;;;;;;14.53;100.00;101949.47;4972155;28;20045;-76
2022/09/02 05:49:53;;;;;;;1.85;1.33;;;;;;;14.55;100.00;101949.47;4960289;28;20069;-76
2022/09/02 05:52:25;;;;;;;1.55;1.40;;;;;;;14.58;100.00;101954.84;4989433;28;20410;-76
2022/09/02 05:54:55;;;;;;;5.32;1.50;;;;;;;14.59;100.00;101956.59;4968928;28;20042;-76
2022/09/02 05:57:24;;;;;;;5.78;2.05;;;;;;;14.60;100.00;101950.44;4995273;28;20597;-76
2022/09/02 06:00:07;;;;;;;2.35;1.50;;;;;;;14.62;100.00;101956.63;4980956;28;20813;-76
2022/09/02 06:02:42;;;;;;;1.38;1.17;;;;;;;14.66;100.00;101960.19;5003223;28;20033;-77
2022/09/02 06:05:26;;;;;;;1.63;1.33;;;;;;;14.68;100.00;101948.69;4957523;28;20054;-76
2022/09/02 06:08:06;;;;;;;;;;;;;;;14.72;100.00;101947.81;4987506;28;20042;-76
2022/09/02 06:10:41;;;;;;;1.85;1.40;;;;;;;14.74;100.00;101946.03;4994220;28;19921;-76
2022/09/02 06:13:14;;;;;;;2.25;1.40;;;;;;;14.76;100.00;101938.09;4996323;28;20057;-77
2022/09/02 06:15:43;;;;;;;3.90;1.52;;;;;;;14.80;100.00;101940.78;4997853;28;20041;-76
2022/09/02 06:18:14;;;;;;;1.50;1.40;;;;;;;14.82;100.00;101939.03;5015556;28;20049;-77
2022/09/02 06:20:50;;;;;;;2.50;1.42;;;;;;;14.86;100.00;101934.59;4969060;28;20042;-75
2022/09/02 06:23:18;;;;;;;3.33;1.45;;;;;;;14.97;100.00;101934.63;5022459;28;20048;-76
2022/09/02 06:25:49;;;;;;;1.75;1.20;;;;;;;15.06;100.00;101939.94;4964094;28;20061;-76
2022/09/02 06:28:21;;;;;;;1.50;1.40;;;;;;;15.11;100.00;101939.97;5007038;28;20517;-77
2022/09/02 06:30:50;;;;;;;1.30;1.20;;;;;;;15.13;100.00;101939.09;4943146;28;20049;-76
2022/09/02 06:33:23;;;;;;;2.78;1.33;;;;;;;15.17;100.00;101948.81;4998241;28;20041;-77
2022/09/02 06:35:54;;;;;;;3.35;1.60;;;;;;;15.21;100.00;101942.63;4965513;28;20037;-77
2022/09/02 06:38:22;;;;;;;4.90;1.65;;;;;;;15.33;100.00;101943.53;4970715;28;20046;-76
2022/09/02 06:40:54;;;;;;;2.08;1.35;;;;;;;15.40;100.00;101940.88;4967776;28;20514;-76
2022/09/02 06:43:30;;;;;;;1.38;1.27;;;;;;;15.44;100.00;101944.41;4989854;28;20163;-76
2022/09/02 06:46:22;;;;;;;1.67;1.20;;;;;;;15.50;100.00;101939.13;4968450;28;20045;-76
2022/09/02 06:48:54;;;;;;;1.73;1.63;;;;;;;15.55;100.00;101947.09;4961220;28;20056;-76
2022/09/02 06:51:28;;;;;;;1.58;1.35;;;;;;;15.67;100.00;101949.75;4950945;28;20259;-77
2022/09/02 06:54:00;;;;;;;5.47;1.73;;;;;;;15.81;100.00;101944.44;4988283;28;20042;-76
2022/09/02 06:56:33;;;;;;;1.50;1.40;;;;;;;15.91;100.00;101951.53;5011382;28;20534;-77
2022/09/02 06:59:03;;;;;;;4.60;1.40;;;;;;;15.90;99.70;101943.56;4959936;28;20503;-76
2022/09/02 07:01:53;;;;;;;3.38;1.40;;;;;;;15.93;99.28;101939.09;4999355;28;20042;-76
2022/09/02 07:07:15;;;;;;;3.90;1.20;;;;;;;16.08;99.31;101939.97;4978944;28;20148;-77
2022/09/02 07:09:57;;;;;;;4.13;1.20;;;;;;;16.05;99.15;101938.22;5008166;28;20030;-77
2022/09/02 07:12:26;;;;;;;1.40;1.30;;;;;;;16.18;99.37;101939.06;5003260;28;20029;-77
2022/09/02 07:15:03;;;;;;;1.80;1.30;;;;;;;16.31;99.70;101934.59;4991505;28;20333;-76
2022/09/02 07:17:37;;;;;;;1.27;1.15;;;;;;;16.52;99.16;101936.28;5005787;28;20034;-76
2022/09/02 07:20:10;;;;;;;3.00;1.30;;;;;;;16.71;97.20;101938.00;4991325;28;20575;-76
2022/09/02 07:22:44;;;;;;;1.90;1.50;;;;;;;16.75;97.88;101925.56;4970886;28;20045;-77
2022/09/02 07:25:17;;;;;;;1.52;1.42;;;;;;;16.83;97.81;101928.19;4994769;28;20049;-76
2022/09/02 07:27:50;;;;;;;2.20;1.27;;;;;;;16.89;97.11;101928.16;5003750;28;20044;-77
2022/09/02 07:30:19;;;;;;;1.80;1.42;;;;;;;16.79;95.62;101921.09;4990538;28;20038;-76
2022/09/02 07:32:52;;;;;;;2.53;1.27;;;;;;;16.76;95.37;101920.19;4995875;28;20044;-77
2022/09/02 07:35:23;;;;;;;2.80;1.30;;;;;;;16.72;95.44;101915.78;5011323;28;20506;-76
2022/09/02 07:37:53;;;;;;;1.20;1.10;;;;;;;16.70;95.59;101919.34;4953681;28;20068;-76
2022/09/02 07:40:23;;;;;;;1.42;1.33;;;;;;;16.70;95.41;101906.94;5001484;28;20045;-77
2022/09/02 07:42:53;;;;;;;1.77;1.20;;;;;;;16.67;95.45;101922.03;5010902;28;20290;-75
2022/09/02 07:45:23;;;;;;;1.95;1.40;;;;;;;16.66;95.30;101910.50;4991834;28;20069;-77
2022/09/02 07:47:52;;;;;;;1.83;1.70;;;;;;;16.72;95.78;101909.59;5011728;28;20501;-75
2022/09/02 07:50:25;;;;;;;5.55;1.67;;;;;;;16.84;95.41;101922.88;4984615;28;20204;-75
2022/09/02 07:52:57;;;;;;;4.82;1.30;;;;;;;16.92;95.36;101917.50;4971622;28;20037;-76
2022/09/02 07:55:29;;;;;;;4.18;1.52;;;;;;;17.04;94.95;101917.41;5009288;28;20045;-75
2022/09/02 07:57:59;;;;;;;2.38;1.30;;;;;;;17.17;94.51;101915.56;5000075;28;20505;-75
2022/09/02 08:00:29;;;;;;;2.15;1.40;;;;;;;17.29;93.72;101912.78;5000840;28;20509;-75
2022/09/02 08:03:05;;;;;;;4.05;1.15;;;;;;;17.36;92.63;101912.75;4993235;28;20326;-75
2022/09/02 08:05:40;;;;;;;2.13;1.48;;;;;;;17.39;92.31;101904.72;5010455;28;20042;-76
2022/09/02 08:08:08;;;;;;;3.45;1.30;;;;;;;17.44;92.27;101909.13;4987504;28;20156;-77
2022/09/02 08:10:37;;;;;;;3.30;1.45;;;;;;;17.53;91.93;101902.84;4984355;28;20041;-76
2022/09/02 08:13:05;;;;;;;2.22;1.20;;;;;;;17.57;92.35;101906.34;5022000;28;20057;-76
2022/09/02 08:15:35;;;;;;;3.28;1.30;;;;;;;17.75;92.63;101906.19;5005180;28;20052;-76
2022/09/02 08:18:05;;;;;;;3.40;1.48;;;;;;;17.98;92.86;101900.66;5012129;28;20535;-76
2022/09/02 08:20:35;;;;;;;2.95;1.50;;;;;;;18.27;91.75;101904.75;5012542;28;20407;-76
2022/09/02 08:23:07;;;;;;;1.45;1.27;;;;;;;18.46;90.90;101902.75;5002189;28;20049;-76
2022/09/02 08:25:45;;;;;;;;;;;;;;;18.62;89.55;101903.41;4991857;28;20040;-76
2022/09/02 08:28:14;;;;;;;1.98;1.30;;;;;;;18.72;90.35;101899.72;5020885;28;20110;-76
2022/09/02 08:30:42;;;;;;;1.30;1.20;;;;;;;18.83;88.90;101897.81;5027232;28;20053;-75
2022/09/02 08:33:11;;;;;;;3.53;1.30;;;;;;;18.92;88.41;101903.94;5002214;28;20077;-76
2022/09/02 08:35:39;;;;;;;4.90;1.45;;;;;;;18.99;86.99;101894.94;4999830;28;20549;-76
2022/09/02 08:38:08;;;;;;;1.30;1.20;;;;;;;19.03;86.39;101897.50;4983195;28;20057;-76
2022/09/02 08:40:40;;;;;;;1.77;1.45;;;;;;;19.10;87.34;101895.63;4935665;28;20249;-76
2022/09/02 08:43:20;;;;;;;3.75;1.40;;;;;;;19.18;85.28;101892.84;4994207;28;20057;-76
2022/09/02 08:45:50;;;;;;;2.00;1.60;;;;;;;19.28;84.96;101899.78;4996003;28;20058;-75
2022/09/02 08:48:26;;;;;;;1.92;1.20;;;;;;;19.18;83.43;101890.19;4989627;28;20530;-76
2022/09/02 08:51:02;;;;;;;2.42;1.40;;;;;;;19.12;83.47;101891.16;4985562;28;20037;-75
2022/09/02 08:54:02;;;;;;;2.45;1.75;;;;;;;19.20;82.94;101888.34;4989411;28;20050;-76
2022/09/02 08:56:31;;;;;;;2.10;1.33;;;;;;;19.24;83.32;101888.31;4961337;28;20506;-76
2022/09/02 08:59:03;;;;;;;1.92;1.58;;;;;;;19.30;83.42;101884.66;4981626;28;20038;-75
2022/09/02 09:01:46;;;;;;;2.10;1.70;;;;;;;19.33;82.45;101884.56;4990278;28;24772;-76
2022/09/02 09:04:52;;;;;;;2.15;1.50;;;;;;;19.30;82.35;101879.31;4990810;28;20050;-76
2022/09/02 09:07:31;;;;;;;2.55;1.70;;;;;;;19.34;82.70;101875.66;4991118;28;20046;-75
2022/09/02 09:10:15;;;;;;;3.58;1.63;;;;;;;19.46;83.51;101872.75;5001990;28;20049;-76
2022/09/02 09:13:19;;;;;;;1.83;1.50;;;;;;;19.71;82.62;101879.47;4974875;28;20569;-75
2022/09/02 09:16:15;;;;;;;4.35;2.03;;;;;;;19.77;81.44;101874.94;4974845;28;20276;-76
2022/09/02 09:18:54;;;;;;;1.95;1.50;;;;;;;19.86;81.17;101861.34;4989342;28;20183;-76
2022/09/02 09:21:23;;;;;;;4.65;1.75;;;;;;;19.94;80.62;101866.56;4991867;28;20046;-77
2022/09/02 09:23:54;;;;;;;2.08;1.52;;;;;;;19.91;81.07;101863.09;4965335;28;20044;-76
2022/09/02 09:26:29;;;;;;;2.38;1.35;;;;;;;19.97;81.71;101854.94;4986734;28;20400;-76
2022/09/02 09:28:58;;;;;;;4.68;1.80;;;;;;;20.09;81.80;101862.69;4996232;28;20691;-76
2022/09/02 09:31:29;;;;;;;5.15;1.90;;;;;;;20.19;80.52;101856.25;4981815;28;20045;-76
2022/09/02 09:34:06;;;;;;;5.15;1.65;;;;;;;20.15;78.19;101854.56;4996818;28;20399;-76
2022/09/02 09:36:41;;;;;;;4.72;1.67;;;;;;;20.05;79.68;101858.31;4983606;28;20065;-75
2022/09/02 09:39:26;;;;;;;3.70;1.90;;;;;;;20.00;79.52;101845.06;4965809;28;20130;-75
2022/09/02 09:42:11;;;;;;;4.88;1.80;;;;;;;20.10;79.92;101845.75;4990095;28;20052;-75
2022/09/02 09:44:46;;;;;;;2.67;1.58;;;;;;;20.25;79.33;101844.53;5002333;28;20037;-76
2022/09/02 09:47:24;;;;;;;1.67;1.50;;;;;;;20.29;79.18;101840.88;5002314;28;20041;-74
2022/09/02 09:50:14;;;;;;;4.00;1.70;;;;;;;20.38;78.77;101850.53;5013198;28;20037;-75
2022/09/02 09:52:44;;;;;;;2.58;1.80;;;;;;;20.51;78.32;101851.09;4968309;28;20033;-75
2022/09/02 09:55:14;;;;;;;3.30;1.85;;;;;;;20.58;76.77;101845.56;4989824;28;20523;-75
2022/09/02 09:57:50;;;;;;;4.05;1.80;;;;;;;20.66;77.25;101836.53;4992515;28;20045;-75
2022/09/02 10:00:30;;;;;;;3.00;1.85;;;;;;;20.74;76.77;101827.41;4994306;28;20050;-82
2022/09/02 10:03:03;;;;;;;6.05;2.00;;;;;;;20.78;77.24;101829.09;5006618;28;20411;-75
2022/09/02 10:05:37;;;;;;;2.58;1.83;;;;;;;20.78;76.32;101823.72;5002869;28;20037;-77
2022/09/02 10:08:15;;;;;;;5.40;2.20;;;;;;;20.76;76.19;101825.56;4985210;28;20167;-76
2022/09/02 10:11:05;;;;;;;4.65;2.05;;;;;;;20.90;75.35;101810.97;5002556;28;20045;-75
2022/09/02 10:13:35;;;;;;;2.35;1.60;;;;;;;21.01;75.82;101814.25;4983960;28;20057;-76
2022/09/02 10:16:11;;;;;;;4.60;3.13;;;;;;;21.05;75.13;101817.75;4981469;28;20046;-76
2022/09/02 10:18:53;;;;;;;4.30;2.17;;;;;;;21.14;74.57;101809.47;5000057;28;20042;-75
2022/09/02 10:21:49;;;;;;;1.58;1.48;;;;;;;21.22;73.08;101819.06;5001871;28;20037;-76
2022/09/02 10:24:35;;;;;;;3.80;1.80;;;;;;;21.27;73.17;101807.34;5008874;28;20504;-75
2022/09/02 10:27:07;;;;;;;7.43;1.40;;;;;;;21.38;74.18;101814.19;4989717;28;20507;-76
2022/09/02 10:29:54;;;;;;;4.63;2.03;;;;;;;21.48;71.34;101809.50;4965757;28;20034;-76
2022/09/02 10:32:38;;;;;;;2.95;1.50;;;;;;;21.51;68.95;101811.19;5001407;28;20060;-76
2022/09/02 10:35:13;;;;;;;4.88;1.42;;;;;;;21.49;69.19;101805.88;4985208;28;20045;-76
2022/09/02 10:38:11;;;;;;;6.00;1.88;;;;;;;21.51;68.15;101798.69;5016337;28;20250;-76
2022/09/02 10:40:51;;;;;;;1.85;1.50;;;;;;;21.48;66.68;101798.75;4998674;28;20041;-75
2022/09/02 10:43:42;;;;;;;1.73;1.38;;;;;;;21.49;68.81;101791.59;5021081;28;20386;-75
2022/09/02 10:46:17;;;;;;;6.35;1.58;;;;;;;21.65;68.91;101787.56;5015744;28;20049;-76
2022/09/02 10:49:00;;;;;;;5.25;1.52;;;;;;;21.75;67.99;101775.63;5010091;28;20207;-76
2022/09/02 10:51:42;;;;;;;3.53;1.42;;;;;;;;;;5019426;28;20053;-75
2022/09/02 10:54:32;;;;;;;2.78;1.30;;;;;;;22.05;68.86;101773.00;5029637;28;20041;-76
2022/09/02 10:57:11;;;;;;;1.80;1.30;;;;;;;22.09;63.56;101771.97;5005671;28;20056;-76
2022/09/02 10:59:51;;;;;;;7.20;1.50;;;;;;;22.09;65.20;101771.09;4987515;28;20053;-76
2022/09/02 11:02:21;;;;;;;5.20;1.20;;;;;;;22.15;65.18;101766.41;4998628;28;20511;-77
2022/09/02 11:04:59;;;;;;;4.15;1.50;;;;;;;22.19;64.91;101764.50;4982383;28;20049;-76
2022/09/02 11:07:36;;;;;;;4.30;1.42;;;;;;;22.29;63.62;101765.16;5021043;28;20045;-76
2022/09/02 11:10:15;;;;;;;2.92;1.20;;;;;;;22.39;62.65;101766.63;5027224;28;20034;-75
2022/09/02 11:12:53;;;;;;;2.80;1.33;;;;;;;22.45;62.95;101752.97;4997275;28;20540;-76
2022/09/02 11:15:47;;;;;;;2.67;1.23;;;;;;;22.59;61.96;101752.56;5021356;28;20071;-74
2022/09/02 11:18:20;;;;;;;5.05;1.42;;;;;;;22.65;61.83;101754.16;5014534;28;20048;-75
2022/09/02 11:21:26;;;;;;;1.20;1.05;;;;;;;22.60;59.21;101748.91;4997179;28;20483;-77
2022/09/02 11:24:09;;;;;;;2.53;1.27;;;;;;;22.54;61.03;101733.88;5014293;28;20283;-75
2022/09/02 11:27:14;;;;;;;1.20;1.10;;;;;;;22.54;60.29;101736.56;5009018;28;20048;-76
2022/09/02 11:30:12;;;;;;;5.25;1.30;;;;;;;22.56;61.47;101742.78;5005766;28;20042;-75
2022/09/02 11:33:02;;;;;;;1.45;1.10;;;;;;;22.49;59.65;101733.16;4978728;28;20655;-77
2022/09/02 11:35:37;;;;;;;3.90;1.20;;;;;;;22.53;59.34;101732.16;4992213;28;20482;-76
2022/09/02 11:38:47;;;;;;;5.60;1.40;;;;;;;22.44;58.38;101740.50;5020417;28;20045;-76
2022/09/02 11:41:31;;;;;;;1.45;1.33;;;;;;;22.34;60.66;101729.19;4974969;28;20053;-76
2022/09/02 11:44:22;;;;;;;2.33;1.05;;;;;;;22.39;59.70;101729.03;4981831;28;20042;-76
2022/09/02 11:47:23;;;;;;;3.22;1.10;;;;;;;22.37;58.22;101715.63;4994221;28;20049;-75
2022/09/02 11:50:04;;;;;;;2.15;1.20;;;;;;;22.42;60.19;101717.28;4967934;28;20617;-76
2022/09/02 11:52:32;;;;;;;;;;;;;;;22.42;56.53;101718.19;4992350;28;20033;-77
2022/09/02 11:55:12;;;;;;;2.28;0.90;;;;;;;22.48;58.91;101715.28;5015548;28;20277;-76
2022/09/02 11:57:51;;;;;;;2.08;0.93;;;;;;;22.55;59.00;101705.22;4992599;28;20267;-76
2022/09/02 12:00:37;;;;;;;3.22;1.10;;;;;;;22.68;58.30;101713.75;5009877;28;20048;-75